createdAt,value
2018-09-01T00:01:09.852Z,19.54
2018-09-01T00:03:38.860Z,19.46
2018-09-01T00:06:08.002Z,19.42
2018-09-01T00:08:36.971Z,19.39
2018-09-01T00:11:06.150Z,19.36
2018-09-01T00:13:35.235Z,19.32
2018-09-01T00:16:04.327Z,19.25
2018-09-01T00:18:33.300Z,19.18
2018-09-01T00:21:02.408Z,19.11
2018-09-01T00:23:31.425Z,19.05
2018-09-01T00:26:00.432Z,19.00
2018-09-01T00:28:29.438Z,18.95
2018-09-01T00:30:58.428Z,18.88
2018-09-01T00:33:27.489Z,18.83
2018-09-01T00:35:56.462Z,18.79
2018-09-01T00:38:30.402Z,18.75
2018-09-01T00:40:59.370Z,18.69
2018-09-01T00:43:28.501Z,18.73
2018-09-01T00:45:57.532Z,18.71
2018-09-01T00:48:26.590Z,18.76
2018-09-01T00:50:55.560Z,18.79
2018-09-01T00:53:24.585Z,18.80
2018-09-01T00:55:53.646Z,18.80
2018-09-01T00:58:22.668Z,18.81
2018-09-01T01:00:51.665Z,18.80
2018-09-01T01:03:20.692Z,18.79
2018-09-01T01:05:49.696Z,18.77
2018-09-01T01:08:18.706Z,18.73
2018-09-01T01:10:47.689Z,18.69
2018-09-01T01:13:16.633Z,18.66
2018-09-01T01:15:45.660Z,18.64
2018-09-01T01:18:14.628Z,18.62
2018-09-01T01:20:43.755Z,18.59
2018-09-01T01:23:12.764Z,18.57
2018-09-01T01:25:41.752Z,18.55
2018-09-01T01:28:10.728Z,18.51
2018-09-01T01:30:39.776Z,18.49
2018-09-01T01:33:08.812Z,18.42
2018-09-01T01:35:37.752Z,18.34
2018-09-01T01:38:06.763Z,18.29
2018-09-01T01:40:35.841Z,18.24
2018-09-01T01:43:04.804Z,18.18
2018-09-01T01:45:33.868Z,18.14
2018-09-01T01:48:02.840Z,18.12
2018-09-01T01:50:31.800Z,18.10
2018-09-01T01:53:00.768Z,18.08
2018-09-01T01:55:29.740Z,18.05
2018-09-01T01:57:58.712Z,18.04
2018-09-01T02:00:27.742Z,18.01
2018-09-01T02:02:56.807Z,17.97
2018-09-01T02:05:32.376Z,17.93
2018-09-01T02:08:01.400Z,17.89
2018-09-01T02:10:30.429Z,17.84
2018-09-01T02:12:59.452Z,17.81
2018-09-01T02:15:28.560Z,17.80
2018-09-01T02:17:57.573Z,17.81
2018-09-01T02:20:26.588Z,17.85
2018-09-01T02:22:55.536Z,17.85
2018-09-01T02:25:24.495Z,17.90
2018-09-01T02:27:53.533Z,17.93
2018-09-01T02:30:22.546Z,17.96
2018-09-01T02:32:51.521Z,17.97
2018-09-01T02:35:20.472Z,17.99
2018-09-01T02:37:49.504Z,17.99
2018-09-01T02:40:18.448Z,17.99
2018-09-01T02:42:47.400Z,18.01
2018-09-01T02:45:16.489Z,17.96
2018-09-01T02:47:45.449Z,17.98
2018-09-01T02:50:14.485Z,17.97
2018-09-01T02:52:43.428Z,17.92
2018-09-01T02:55:12.513Z,17.89
2018-09-01T02:57:41.536Z,17.88
2018-09-01T03:00:15.677Z,17.83
2018-09-01T03:02:45.624Z,17.79
2018-09-01T03:05:16.145Z,17.75
2018-09-01T03:07:45.306Z,17.71
2018-09-01T03:10:14.509Z,17.67
2018-09-01T03:12:43.568Z,17.65
2018-09-01T03:15:12.581Z,17.63
2018-09-01T03:17:41.697Z,17.61
2018-09-01T03:20:10.648Z,17.64
2018-09-01T03:22:39.680Z,17.66
2018-09-01T03:25:08.633Z,17.69
2018-09-01T03:27:37.644Z,17.70
2018-09-01T03:30:06.824Z,17.72
2018-09-01T03:32:35.893Z,17.69
2018-09-01T03:35:04.949Z,17.61
2018-09-01T03:37:33.895Z,17.58
2018-09-01T03:40:02.927Z,17.54
2018-09-01T03:42:31.964Z,17.47
2018-09-01T03:45:00.956Z,17.41
2018-09-01T03:47:29.932Z,17.35
2018-09-01T03:49:59.040Z,17.34
2018-09-01T03:52:28.021Z,17.33
2018-09-01T03:54:57.029Z,17.35
2018-09-01T03:57:26.040Z,17.40
2018-09-01T03:59:54.999Z,17.46
2018-09-01T04:02:23.949Z,17.54
2018-09-01T04:04:52.968Z,17.63
2018-09-01T04:19:24.684Z,18.75
2018-09-01T04:21:53.668Z,18.86
2018-09-01T04:24:22.684Z,18.92
2018-09-01T04:26:51.761Z,19.03
2018-09-01T04:29:20.724Z,19.09
2018-09-01T04:31:49.763Z,19.11
2018-09-01T04:34:18.773Z,19.31
2018-09-01T04:36:47.796Z,19.61
2018-09-01T04:39:16.921Z,20.04
2018-09-01T04:41:45.995Z,20.54
2018-09-01T04:44:15.012Z,21.22
2018-09-01T04:46:44.189Z,21.93
2018-09-01T04:49:13.243Z,22.54
2018-09-01T04:51:42.196Z,23.09
2018-09-01T04:54:11.215Z,23.22
2018-09-01T04:56:40.179Z,23.66
2018-09-01T04:59:09.216Z,24.20
2018-09-01T05:01:38.317Z,24.78
2018-09-01T05:04:07.288Z,25.35
2018-09-01T05:06:36.381Z,26.03
2018-09-01T05:09:06.862Z,26.29
2018-09-01T05:11:35.936Z,26.23
2018-09-01T05:14:04.989Z,26.63
2018-09-01T05:16:34.088Z,26.94
2018-09-01T05:19:03.151Z,27.35
2018-09-01T05:21:32.192Z,27.75
2018-09-01T05:24:01.290Z,28.01
2018-09-01T05:26:30.314Z,28.01
2018-09-01T05:28:59.396Z,28.73
2018-09-01T05:31:28.412Z,29.04
2018-09-01T05:33:57.699Z,29.42
2018-09-01T05:36:26.645Z,28.88
2018-09-01T05:38:55.667Z,27.89
2018-09-01T05:41:24.640Z,26.48
2018-09-01T05:43:53.681Z,26.18
2018-09-01T05:46:22.649Z,25.63
2018-09-01T05:48:51.600Z,25.29
2018-09-01T05:51:20.692Z,25.35
2018-09-01T05:53:49.684Z,25.52
2018-09-01T05:56:18.744Z,26.65
2018-09-01T05:58:47.789Z,27.78
2018-09-01T06:01:16.928Z,28.30
2018-09-01T06:03:46.014Z,27.94
2018-09-01T06:06:15.110Z,27.36
2018-09-01T06:08:43.962Z,26.72
2018-09-01T06:11:13.024Z,26.72
2018-09-01T06:13:42.049Z,26.75
2018-09-01T06:16:11.113Z,26.58
2018-09-01T06:18:40.123Z,26.68
2018-09-01T06:33:53.037Z,27.11
2018-09-01T06:36:23.261Z,27.40
2018-09-01T06:38:52.283Z,27.59
2018-09-01T06:41:21.276Z,27.44
2018-09-01T06:43:50.293Z,27.54
2018-09-01T06:46:19.241Z,27.87
2018-09-01T06:48:48.323Z,28.18
2018-09-01T06:51:17.386Z,28.34
2018-09-01T06:53:46.400Z,28.39
2018-09-01T06:56:15.457Z,28.22
2018-09-01T06:58:44.561Z,28.06
2018-09-01T07:01:13.583Z,28.10
2018-09-01T07:03:42.548Z,28.31
2018-09-01T07:06:11.621Z,28.34
2018-09-01T07:08:40.750Z,28.65
2018-09-01T07:11:09.820Z,28.69
2018-09-01T07:13:38.788Z,28.73
2018-09-01T07:16:07.929Z,29.11
2018-09-01T07:18:36.961Z,29.56
2018-09-01T07:21:06.154Z,29.47
2018-09-01T07:23:35.250Z,29.54
2018-09-01T07:26:04.385Z,29.56
2018-09-01T07:28:33.348Z,29.66
2018-09-01T07:31:02.693Z,29.70
2018-09-01T07:33:31.497Z,29.74
2018-09-01T07:36:00.466Z,29.78
2018-09-01T07:38:29.485Z,29.75
2018-09-01T07:40:58.470Z,29.79
2018-09-01T07:43:27.472Z,30.00
2018-09-01T07:45:56.455Z,30.17
2018-09-01T07:48:25.411Z,30.25
2018-09-01T07:50:54.498Z,30.26
2018-09-01T07:53:23.564Z,30.38
2018-09-01T07:55:52.548Z,30.42
2018-09-01T07:58:21.585Z,30.40
2018-09-01T08:00:50.662Z,30.54
2018-09-01T08:03:19.791Z,30.76
2018-09-01T08:05:48.827Z,30.86
2018-09-01T08:08:17.857Z,30.98
2018-09-01T08:10:46.820Z,30.85
2018-09-01T08:13:15.782Z,31.11
2018-09-01T08:15:44.843Z,31.18
2018-09-01T08:18:13.823Z,31.08
2018-09-01T08:20:42.897Z,31.41
2018-09-01T08:23:12.047Z,31.46
2018-09-01T08:25:41.100Z,31.46
2018-09-01T08:28:10.531Z,31.51
2018-09-01T08:30:39.742Z,31.72
2018-09-01T08:33:08.774Z,31.73
2018-09-01T08:35:37.789Z,31.68
2018-09-01T08:38:06.964Z,31.62
2018-09-01T08:40:36.020Z,31.62
2018-09-01T08:43:05.043Z,31.63
2018-09-01T08:45:34.045Z,31.73
2018-09-01T08:48:03.105Z,31.69
2018-09-01T08:50:32.071Z,31.96
2018-09-01T08:53:01.073Z,32.19
2018-09-01T08:55:30.112Z,32.28
2018-09-01T08:57:59.124Z,32.29
2018-09-01T09:00:28.258Z,32.24
2018-09-01T09:02:57.223Z,32.29
2018-09-01T09:05:26.169Z,32.48
2018-09-01T09:07:55.160Z,32.64
2018-09-01T09:10:24.099Z,32.66
2018-09-01T09:12:53.125Z,32.71
2018-09-01T09:15:22.111Z,32.61
2018-09-01T09:17:51.196Z,32.71
2018-09-01T09:20:20.156Z,32.82
2018-09-01T09:22:49.169Z,32.77
2018-09-01T09:25:18.138Z,32.72
2018-09-01T09:27:47.257Z,32.66
2018-09-01T09:30:16.272Z,32.83
2018-09-01T09:32:45.270Z,32.91
2018-09-01T09:35:14.462Z,33.14
2018-09-01T09:37:43.424Z,33.32
2018-09-01T09:40:12.392Z,33.49
2018-09-01T09:42:41.425Z,33.45
2018-09-01T09:45:10.412Z,33.38
2018-09-01T09:47:39.522Z,33.33
2018-09-01T09:50:08.525Z,33.74
2018-09-01T09:52:37.544Z,34.10
2018-09-01T09:55:06.793Z,33.98
2018-09-01T09:57:35.880Z,34.02
2018-09-01T10:00:05.242Z,34.14
2018-09-01T10:02:34.200Z,34.04
2018-09-01T10:05:03.234Z,33.93
2018-09-01T10:07:32.192Z,34.02
2018-09-01T10:10:01.225Z,34.32
2018-09-01T10:12:30.257Z,34.49
2018-09-01T10:14:59.262Z,34.62
2018-09-01T10:17:28.273Z,34.58
2018-09-01T10:19:57.378Z,34.92
2018-09-01T10:22:26.328Z,35.03
2018-09-01T10:24:55.324Z,34.82
2018-09-01T10:27:24.349Z,35.08
2018-09-01T10:29:53.303Z,35.21
2018-09-01T10:32:22.317Z,35.56
2018-09-01T10:34:51.441Z,35.65
2018-09-01T10:37:20.545Z,35.66
2018-09-01T10:39:49.626Z,35.74
2018-09-01T10:42:18.692Z,35.79
2018-09-01T10:44:47.717Z,35.90
2018-09-01T10:47:16.692Z,35.93
2018-09-01T10:49:45.718Z,36.02
2018-09-01T10:52:14.668Z,36.04
2018-09-01T10:54:43.684Z,36.27
2018-09-01T10:57:12.688Z,36.56
2018-09-01T10:59:41.816Z,36.92
2018-09-01T11:02:10.818Z,37.64
2018-09-01T11:04:39.775Z,38.25
2018-09-01T11:07:08.793Z,38.58
2018-09-01T11:09:37.759Z,39.25
2018-09-01T11:12:06.802Z,40.05
2018-09-01T11:14:35.747Z,40.62
2018-09-01T11:17:04.809Z,40.50
2018-09-01T11:19:34.075Z,40.87
2018-09-01T11:22:03.144Z,41.33
2018-09-01T11:24:32.116Z,41.52
2018-09-01T11:27:01.202Z,42.07
2018-09-01T11:29:30.239Z,41.82
2018-09-01T11:31:59.329Z,41.91
2018-09-01T11:34:28.384Z,42.06
2018-09-01T11:36:57.416Z,42.16
2018-09-01T11:39:26.388Z,41.38
2018-09-01T11:41:55.460Z,41.39
2018-09-01T11:44:24.471Z,41.76
2018-09-01T11:46:53.546Z,42.84
2018-09-01T11:49:22.545Z,42.93
2018-09-01T11:51:51.549Z,43.36
2018-09-01T11:54:20.574Z,43.14
2018-09-01T11:56:49.516Z,43.49
2018-09-01T11:59:18.480Z,43.47
2018-09-01T12:01:47.500Z,44.30
2018-09-01T12:04:16.589Z,44.72
2018-09-01T12:06:45.589Z,44.33
2018-09-01T12:09:14.705Z,42.81
2018-09-01T12:11:43.616Z,41.51
2018-09-01T12:14:12.568Z,40.43
2018-09-01T12:16:41.600Z,40.22
2018-09-01T12:19:10.642Z,40.39
2018-09-01T12:21:39.785Z,39.93
2018-09-01T12:24:08.813Z,39.30
2018-09-01T12:26:37.929Z,38.75
2018-09-01T12:29:06.947Z,37.98
2018-09-01T12:31:35.900Z,37.45
2018-09-01T12:34:04.869Z,38.13
2018-09-01T12:36:33.832Z,39.11
2018-09-01T12:39:02.945Z,40.10
2018-09-01T12:41:31.963Z,40.48
2018-09-01T12:44:00.939Z,40.69
2018-09-01T12:46:29.950Z,40.86
2018-09-01T12:48:58.978Z,41.14
2018-09-01T12:51:28.165Z,41.84
2018-09-01T12:53:57.210Z,41.43
2018-09-01T12:56:26.276Z,40.48
2018-09-01T12:58:55.302Z,39.08
2018-09-01T13:01:24.272Z,38.26
2018-09-01T13:03:53.253Z,37.49
2018-09-01T13:06:22.332Z,36.84
2018-09-01T13:08:51.332Z,36.27
2018-09-01T13:11:20.491Z,35.75
2018-09-01T13:13:49.441Z,35.34
2018-09-01T13:16:18.574Z,34.88
2018-09-01T13:18:47.645Z,34.68
2018-09-01T13:21:16.677Z,34.28
2018-09-01T13:23:45.757Z,34.13
2018-09-01T13:26:14.791Z,34.09
2018-09-01T13:28:43.889Z,34.04
2018-09-01T13:31:12.885Z,33.97
2018-09-01T13:33:41.944Z,33.97
2018-09-01T13:36:10.994Z,33.93
2018-09-01T13:38:40.010Z,33.99
2018-09-01T13:41:09.080Z,33.79
2018-09-01T13:43:38.090Z,33.77
2018-09-01T13:46:07.119Z,33.76
2018-09-01T13:48:36.249Z,33.67
2018-09-01T13:51:05.278Z,33.60
2018-09-01T13:53:34.377Z,33.66
2018-09-01T13:56:03.333Z,33.54
2018-09-01T13:58:32.398Z,33.56
2018-09-01T14:01:01.442Z,33.46
2018-09-01T14:03:30.480Z,33.33
2018-09-01T14:05:59.504Z,33.31
2018-09-01T14:08:28.524Z,33.20
2018-09-01T14:10:57.561Z,33.15
2018-09-01T14:13:26.602Z,33.07
2018-09-01T14:18:15.814Z,32.93
2018-09-01T14:20:44.825Z,32.94
2018-09-01T14:23:13.865Z,32.89
2018-09-01T14:25:42.897Z,32.83
2018-09-01T14:28:12.123Z,32.77
2018-09-01T14:30:41.081Z,32.77
2018-09-01T14:33:10.085Z,32.71
2018-09-01T14:35:39.073Z,32.65
2018-09-01T14:38:08.028Z,32.61
2018-09-01T14:40:37.057Z,32.59
2018-09-01T14:43:06.142Z,32.55
2018-09-01T14:45:35.274Z,32.49
2018-09-01T14:48:04.435Z,32.44
2018-09-01T14:50:33.403Z,32.38
2018-09-01T14:53:02.442Z,32.33
2018-09-01T14:55:31.390Z,32.30
2018-09-01T14:58:00.384Z,32.31
2018-09-01T15:00:29.433Z,32.18
2018-09-01T15:02:58.505Z,32.15
2018-09-01T15:05:27.533Z,32.12
2018-09-01T15:07:56.689Z,32.09
2018-09-01T15:10:25.702Z,32.07
2018-09-01T15:12:54.653Z,32.01
2018-09-01T15:15:23.749Z,32.00
2018-09-01T15:17:52.705Z,31.95
2018-09-01T15:20:22.026Z,31.96
2018-09-01T15:22:51.040Z,31.97
2018-09-01T15:25:20.133Z,31.88
2018-09-01T15:27:49.094Z,31.88
2018-09-01T15:30:18.188Z,31.87
2018-09-01T15:32:47.142Z,31.75
2018-09-01T15:35:16.150Z,31.85
2018-09-01T15:37:45.182Z,31.85
2018-09-01T15:40:14.148Z,31.82
2018-09-01T15:42:43.160Z,31.75
2018-09-01T15:45:12.236Z,31.66
2018-09-01T15:47:41.552Z,31.55
2018-09-01T15:50:10.496Z,31.38
2018-09-01T15:52:39.513Z,31.25
2018-09-01T15:55:08.778Z,31.08
2018-09-01T15:57:37.777Z,30.92
2018-09-01T16:00:06.862Z,30.81
2018-09-01T16:02:35.860Z,30.72
2018-09-01T16:05:04.877Z,30.58
2018-09-01T16:07:33.870Z,30.45
2018-09-01T16:10:02.896Z,30.33
2018-09-01T16:12:31.878Z,30.20
2018-09-01T16:15:00.841Z,30.00
2018-09-01T16:17:29.896Z,29.85
2018-09-01T16:19:58.884Z,29.74
2018-09-01T16:22:27.920Z,29.58
2018-09-01T16:24:56.945Z,29.41
2018-09-01T16:27:26.005Z,29.19
2018-09-01T16:29:55.078Z,28.98
2018-09-01T16:32:24.153Z,28.79
2018-09-01T16:34:53.181Z,28.59
2018-09-01T16:37:22.133Z,28.42
2018-09-01T16:39:51.163Z,28.18
2018-09-01T16:42:20.108Z,27.97
2018-09-01T16:44:49.122Z,27.81
2018-09-01T16:47:18.138Z,27.66
2018-09-01T16:49:47.101Z,27.45
2018-09-01T16:52:16.292Z,27.29
2018-09-01T16:54:45.301Z,27.11
2018-09-01T16:57:14.336Z,26.94
2018-09-01T16:59:43.419Z,26.81
2018-09-01T17:02:12.437Z,26.62
2018-09-01T17:04:41.464Z,26.46
2018-09-01T17:07:10.474Z,26.35
2018-09-01T17:09:39.679Z,26.20
2018-09-01T17:12:14.798Z,26.08
2018-09-01T17:14:44.040Z,25.97
2018-09-01T17:17:13.692Z,25.85
2018-09-01T17:19:42.705Z,25.76
2018-09-01T17:22:11.733Z,25.65
2018-09-01T17:24:40.699Z,25.56
2018-09-01T17:27:09.927Z,25.46
2018-09-01T17:29:39.192Z,25.33
2018-09-01T17:32:08.539Z,25.20
2018-09-01T17:34:37.765Z,25.10
2018-09-01T17:37:07.076Z,25.01
2018-09-01T17:39:36.371Z,24.93
2018-09-01T17:42:05.833Z,24.84
2018-09-01T17:44:35.128Z,24.76
2018-09-01T17:47:04.448Z,24.69
2018-09-01T17:49:33.758Z,24.65
2018-09-01T17:52:02.983Z,24.59
2018-09-01T17:54:32.498Z,24.55
2018-09-01T17:57:01.921Z,24.50
2018-09-01T17:59:31.146Z,24.45
2018-09-01T18:02:00.481Z,24.41
2018-09-01T18:04:29.867Z,24.34
2018-09-01T18:06:59.244Z,24.26
2018-09-01T18:09:28.566Z,24.21
2018-09-01T18:11:57.947Z,24.14
2018-09-01T18:14:27.363Z,24.05
2018-09-01T18:16:56.677Z,23.98
2018-09-01T18:19:26.033Z,23.93
2018-09-01T18:21:55.340Z,23.89
2018-09-01T18:24:24.679Z,23.85
2018-09-01T18:26:53.994Z,23.80
2018-09-01T18:29:23.391Z,23.72
2018-09-01T18:31:52.705Z,23.67
2018-09-01T18:34:22.027Z,23.61
2018-09-01T18:36:51.461Z,23.61
2018-09-01T18:39:21.267Z,23.60
2018-09-01T18:41:50.581Z,23.57
2018-09-01T18:44:21.030Z,23.56
2018-09-01T18:46:50.407Z,23.56
2018-09-01T18:49:19.744Z,23.52
2018-09-01T18:51:49.102Z,23.46
2018-09-01T18:54:18.470Z,23.41
2018-09-01T18:56:47.800Z,23.41
2018-09-01T18:59:17.123Z,23.36
2018-09-01T19:01:46.439Z,23.33
2018-09-01T19:04:15.727Z,23.30
2018-09-01T19:06:45.028Z,23.27
2018-09-01T19:09:14.375Z,23.21
2018-09-01T19:11:43.657Z,23.18
2018-09-01T19:14:12.979Z,23.15
2018-09-01T19:16:42.387Z,23.13
2018-09-01T19:19:11.786Z,23.12
2018-09-01T19:21:41.546Z,23.12
2018-09-01T19:24:11.015Z,23.11
2018-09-01T19:26:40.402Z,23.10
2018-09-01T19:29:09.751Z,23.13
2018-09-01T19:31:39.168Z,23.15
2018-09-01T19:34:08.515Z,23.16
2018-09-01T19:36:37.821Z,23.16
2018-09-01T19:39:09.753Z,23.15
2018-09-01T19:41:39.118Z,23.13
2018-09-01T19:44:08.434Z,23.14
2018-09-01T19:46:37.777Z,23.09
2018-09-01T19:49:07.492Z,23.03
2018-09-01T19:51:36.788Z,22.99
2018-09-01T19:54:06.321Z,23.00
2018-09-01T19:56:35.593Z,22.93
2018-09-01T19:59:04.968Z,22.87
2018-09-01T20:01:33.976Z,22.80
2018-09-01T20:04:03.260Z,22.77
2018-09-01T20:06:32.277Z,22.80
2018-09-01T20:09:01.210Z,22.78
2018-09-01T20:11:30.200Z,22.77
2018-09-01T20:13:59.285Z,22.78
2018-09-01T20:16:28.249Z,22.71
2018-09-01T20:18:57.248Z,22.78
2018-09-01T20:21:26.227Z,22.78
2018-09-01T20:23:55.263Z,22.76
2018-09-01T20:26:24.229Z,22.75
2018-09-01T20:28:53.215Z,22.73
2018-09-01T20:31:22.343Z,22.67
2018-09-01T20:33:51.305Z,22.64
2018-09-01T20:36:22.348Z,22.58
2018-09-01T20:38:51.352Z,22.53
2018-09-01T20:41:20.323Z,22.51
2018-09-01T20:43:49.262Z,22.47
2018-09-01T20:46:18.280Z,22.42
2018-09-01T20:48:47.241Z,22.36
2018-09-01T20:51:16.193Z,22.31
2018-09-01T20:53:45.189Z,22.34
2018-09-01T20:56:14.251Z,22.35
2018-09-01T20:58:43.236Z,22.35
2018-09-01T21:01:12.217Z,22.35
2018-09-01T21:03:41.203Z,22.33
2018-09-01T21:06:10.153Z,22.30
2018-09-01T21:08:39.181Z,22.26
2018-09-01T21:11:08.150Z,22.23
2018-09-01T21:13:37.326Z,22.26
2018-09-01T21:16:06.368Z,22.21
2018-09-01T21:18:35.333Z,22.16
2018-09-01T21:21:04.301Z,22.14
2018-09-01T21:23:33.279Z,22.05
2018-09-01T21:26:02.345Z,21.99
2018-09-01T21:28:31.304Z,21.92
2018-09-01T21:31:00.252Z,21.87
2018-09-01T21:33:29.225Z,21.85
2018-09-01T21:35:58.171Z,21.80
2018-09-01T21:38:27.150Z,21.75
2018-09-01T21:40:56.196Z,21.74
2018-09-01T21:43:25.255Z,21.71
2018-09-01T21:45:54.205Z,21.68
2018-09-01T21:48:23.177Z,21.65
2018-09-01T21:50:52.173Z,21.63
2018-09-01T21:53:21.135Z,21.64
2018-09-01T21:55:50.215Z,21.65
2018-09-01T21:58:19.190Z,21.67
2018-09-01T22:00:52.152Z,21.70
2018-09-01T22:03:22.231Z,21.78
2018-09-01T22:05:51.192Z,21.81
2018-09-01T22:08:20.135Z,21.87
2018-09-01T22:10:49.095Z,21.88
2018-09-01T22:13:18.088Z,21.89
2018-09-01T22:15:47.047Z,21.88
2018-09-01T22:18:16.010Z,21.85
2018-09-01T22:20:44.955Z,21.81
2018-09-01T22:23:13.952Z,21.73
2018-09-01T22:25:42.913Z,21.67
2018-09-01T22:28:11.865Z,21.60
2018-09-01T22:30:40.837Z,21.54
2018-09-01T22:33:09.795Z,21.46
2018-09-01T22:35:38.795Z,21.41
2018-09-01T22:38:07.740Z,21.37
2018-09-01T22:40:36.746Z,21.33
2018-09-01T22:43:05.780Z,21.27
2018-09-01T22:45:34.741Z,21.22
2018-09-01T22:48:03.703Z,21.18
2018-09-01T22:50:32.654Z,21.12
2018-09-01T22:53:01.632Z,21.05
2018-09-01T22:55:30.582Z,21.00
2018-09-01T22:57:59.583Z,20.95
2018-09-01T23:00:28.524Z,20.90
2018-09-01T23:02:57.480Z,20.85
2018-09-01T23:05:26.451Z,20.80
2018-09-01T23:07:55.396Z,20.79
2018-09-01T23:10:24.665Z,20.77
2018-09-01T23:12:53.646Z,20.71
2018-09-01T23:15:22.672Z,20.68
2018-09-01T23:17:51.624Z,20.65
2018-09-01T23:20:20.625Z,20.60
2018-09-01T23:22:49.577Z,20.54
2018-09-01T23:25:18.537Z,20.51
2018-09-01T23:27:47.497Z,20.45
2018-09-01T23:30:16.444Z,20.41
2018-09-01T23:32:45.560Z,20.33
2018-09-01T23:35:14.505Z,20.33
2018-09-01T23:37:43.462Z,20.32
2018-09-01T23:40:12.420Z,20.31
2018-09-01T23:42:41.368Z,20.24
2018-09-01T23:45:10.348Z,20.20
2018-09-01T23:47:39.292Z,20.13
2018-09-01T23:50:08.333Z,20.03
2018-09-01T23:52:37.284Z,19.92
2018-09-01T23:55:06.385Z,19.91
2018-09-01T23:57:35.366Z,19.83
